Terminal Aerodrome Forecast
Issued by NWS

Home | Current Version | Previous Version | Text Only | Print | Product List | Glossary On
Versions: 1 2 3 4 5 6 7 8 9 10 11 12 13 14 15 16 17 18 19 20 21 22 23
000
FTUS42 KMHX 020500 RRA
TAFISO
TAF
KISO 020545Z 0206/0306 00000KT 3SM BR SCT010
      TEMPO 0208/0212 1SM BR BKN007
     FM021300 VRB04KT P6SM SCT035
      AMD LTD TO CLD VIS AND WIND=

USA.gov is the U.S. government's official web portal to all federal, state and local government web resources and services.